Park Hill, OK

6:37 AM CDT on October 24, 2014 (GMT -0500)
Tenkiller Harbor | Change Station
CLOSE
Current Station
Personal Weather Station
Location: Park Hill, OK
Elevation: 751 ft
Nearby Weather Stations

Elev 751 ft 35.65 °N, 95.04 °W | Updated 5 seconds ago

Partly Cloudy
Partly Cloudy
55.0 °F
Feels Like 55.0 °F
N
0.0
Wind Variable Wind from SSE
Gusts 0.0 mph

Today
High -- | Low -- °F
--% Chance of Precip.
Yesterday
High -- | Low -- °F
Precip. -- in
7:34 AM 6:33 PM
New Moon, 0% visible
Pressure 30.13 in
Visibility 6.0 miles
Clouds Mostly Cloudy 5000 ft
Dew Point 50 °F
Humidity 82%
Rainfall 0.00 in
Snow Depth Not available.
UV 0 out of 12
Pollen 3.60 out of 12
Air Quality Not available.
Flu Activity No Activity
METAR KMKO 241053Z AUTO 17005KT 6SM BR BKN050 12/11 A3014 RMK AO2 SLP202 T01220111

More Conditions Fewer Conditions

Pressure 30.13 in
Visibility 6.0 miles
Clouds Mostly Cloudy 5000 ft
Dew Point 50 °F
Humidity 82%
Rainfall 0.00 in
Snow Depth Not available.
UV 0 out of 12
Pollen 3.60 out of 12
Air Quality Not available.
Flu Activity No Activity
METAR KMKO 241053Z AUTO 17005KT 6SM BR BKN050 12/11 A3014 RMK AO2 SLP202 T01220111

More Conditions Fewer Conditions

10-Day Weather Forecast

Almanac

Astronomy

Oct. 24, 2014 Rise Set
Actual Time 7:34 AM CDT 6:33 PM CDT
Civil Twilight 7:08 AM CDT 6:59 PM CDT
Nautical Twilight 6:38 AM CDT 7:29 PM CDT
Astronomical Twilight 6:09 AM CDT 7:58 PM CDT
Moon 8:13 AM CDT 7:15 PM CDT
Length of Visible Light 11h 50m
Length of Day
10h 58m
Tomorrow will be 2m 4s shorter.
New Moon, 0% of the Moon is Illuminated
Today
New Moon
Oct 30
First Quarter
Nov 6
Full
Nov 14
Last Quarter
Nov 22
New

Today's Extremes

State Highs State Lows

Community

WunderPhotos

Upload Photos

1,764,525 photos uploaded!

WunderBlogs® & News

Nearby

Snow Depth

Station Depth Elevation
No new snow has been reported.

Earthquake Activity

City Distance Mag. Time & Date
No recent earthquake activity has been reported nearby.
Minimum magnitude displayed is 2.5.

Coastal Water Temperatures

Place Temperature
No Stations Reporting

Nearby Weather Stations